메인 페이지
METAR-TAF:

METAR-TAF

공항 :

코토팍시 국제공항

Latacunga, 에콰도르

위도: 00-55S, 경도: 078-37W, 고도: 2785m

현재 날씨관측

예보는 1 시간 9분 전, 15:00시(UTC)에 발표되었습니다.
4kt
온도 12°C
습도 88%
기압 1034 hPa
시정 10km 이상
고도 3000ft 상공 구름 많음
고도 10000ft 상공 흐림

METAR: SELT 021500Z 18004KT 9999 BKN030 OVC100 12/10 Q1034

시각: 11:09 (16:09 UTC)

예보

예보는 5 시간 19분 전, 10:50시(UTC)에 발표되었습니다.
예보 대상 시간: 02일 12시부터 03일 12시까지 (UTC)
6kt
시정 10km 이상
고도 3000ft 상공 구름 많음
고도 8000ft 상공 구름 많음
전환 중
02일 16시부터 02일 18시까지 (UTC)
15kt
일시적
02일 21시부터 02일 23시까지 (UTC)
고도 2600ft 상공 구름 조금, 적란운.
고도 3000ft 상공 구름 많음
고도 10000ft 상공 구름 많음
뇌우, 비
전환 중
03일 00시부터 03일 02시까지 (UTC)
남서6kt
고도 3000ft 상공 구름 보통
고도 10000ft 상공 구름 많음
전환 중
03일 04시부터 03일 06시까지 (UTC)
고도 1000ft 상공 구름 조금
고도 3000ft 상공 구름 많음

TAF: SELT 021050Z 0212/0312 35006KT 9999 BKN030 BKN080 BECMG 0216/0218 18015KT TEMPO 0221/0223 TSRA FEW026CB BKN030 BKN100 BECMG 0300/0302 23006KT SCT030 BKN100 BECMG 0304/0306 FEW010 BKN030 TX19/0219Z TN08/0311Z

4,000개 이상의 공항 관측 자료 및 예보 (METAR 및 TAF 보고).

지도상에서 검색 가능한 기상관측소가 노란 점과 빨간 점으로 표시되어 있습니다.

기상관측소 명을 보려면 표시 위로 마우스를 이동하세요.

날씨 관측과 예보를 보려면 클릭하세요.

지도 변경 : 확대하려면 엑스 표시가 있는 녹색 버튼, 축소하려면 빼기 표시가 있는 녹색 버튼, 다음 페이지의 지도를 보려면 녹색 화살표를 클릭하세요.


METAR-TAF: